Dogue, VA (22451)

11:14 AM EDT on September 01, 2015 (GMT -0400)
Dogue | | Change Station
CLOSE
Current Station
Personal Weather Station
Location: King George, VA
Elevation: 110 ft
Nearby Weather Stations

Elev 110 ft 38.21 °N, 77.17 °W | Updated 15 seconds ago

Partly Cloudy
Partly Cloudy
82.5 °F
Feels Like 90 °F
N
0.0
Wind Variable Wind from NNW

Today
High -- | Low -- °F
--% Chance of Precip.
Yesterday
High -- | Low -- °F
Precip. -- in
6:38 AM 7:38 PM
Waning Gibbous, 88% visible
Pressure 30.09 in
Visibility 10.0 miles
Clouds Clear
Heat Index 90 °F
Dew Point 75 °F
Humidity 79%
Rainfall 0.00 in
Snow Depth Not available.
UV 7 out of 12
Pollen 10.60 out of 12
Air Quality Not available.
Flu Activity Not available.
METAR KEZF 011455Z AUTO 00000KT 10SM CLR 30/21 A3009 RMK AO2 T02990214
Pressure 30.09 in
Visibility 10.0 miles
Clouds Clear
Heat Index 90 °F
Dew Point 75 °F
Humidity 79%
Rainfall 0.00 in
Snow Depth Not available.
UV 7 out of 12
Pollen 10.60 out of 12
Air Quality Not available.
Flu Activity Not available.
METAR KEZF 011455Z AUTO 00000KT 10SM CLR 30/21 A3009 RMK AO2 T02990214

10-Day Weather Forecast

×

Almanac

Astronomy

Sep. 01, 2015 Rise Set
Actual Time
Civil Twilight
Nautical Twilight
Astronomical Twilight
Moon
Length of Visible Light
Length of Day
Tomorrow will be .
, % of the Moon is Illuminated

Today's Extremes

State Highs State Lows

Community

WunderPhotos

Upload Photos

1,851,521 photos uploaded!

WunderBlogs® & News

Nearby

Air Quality

  Air Quality AQ Index Pollutant
Not available.

Snow Depth

Station Depth Elevation

Earthquake Activity

City Distance Mag. Time & Date
Minimum magnitude displayed is 2.5.

Coastal Water Temperatures

Place Temperature

Stations

Nearby Weather Stations

Station Location Temp. Windchill Dew Point Humidity Wind Precip. Elev Updated Type